Terminal Aerodrome Forecast
Issued by NWS

Home | Current Version | Previous Version | Text Only | Print | Product List | Glossary On
Versions: 1 2 3 4 5 6 7 8 9 10 11 12 13 14 15 16 17
358
FTUS46 KMTR 210545
TAFOAK
TAF
KOAK 210545Z 2106/2212 26012KT P6SM VCSH FEW029 BKN035 BKN050
     FM211400 23011KT P6SM VCSH BKN050
     FM220000 18012KT P6SM VCSH BKN050
     FM220300 14011KT P6SM -RA BKN035
     FM220600 13020KT P6SM -RA OVC035
     FM220900 15030KT P6SM -RA OVC025=

USA.gov is the U.S. government's official web portal to all federal, state and local government web resources and services.